createdAt,value
2018-05-12T00:00:12.941Z,5.23
2018-05-12T00:02:40.408Z,4.83
2018-05-12T00:05:07.886Z,5.50
2018-05-12T00:07:35.341Z,4.03
2018-05-12T00:10:02.893Z,4.10
2018-05-12T00:12:30.375Z,4.40
2018-05-12T00:14:57.978Z,4.13
2018-05-12T00:17:25.394Z,5.80
2018-05-12T00:19:52.844Z,4.00
2018-05-12T00:22:20.319Z,4.73
2018-05-12T00:24:47.800Z,4.43
2018-05-12T00:27:16.050Z,5.50
2018-05-12T00:29:43.521Z,6.17
2018-05-12T00:32:11.075Z,4.93
2018-05-12T00:34:38.552Z,4.33
2018-05-12T00:37:06.013Z,5.03
2018-05-12T00:39:33.579Z,4.33
2018-05-12T00:42:01.134Z,4.97
2018-05-12T00:44:28.603Z,3.83
2018-05-12T00:46:56.059Z,4.90
2018-05-12T00:49:23.532Z,4.27
2018-05-12T00:51:50.998Z,3.57
2018-05-12T00:54:20.438Z,3.97
2018-05-12T00:56:47.907Z,4.20
2018-05-12T00:59:15.380Z,4.53
2018-05-12T01:01:42.843Z,4.20
2018-05-12T01:04:10.343Z,5.23
2018-05-12T01:06:37.805Z,3.83
2018-05-12T01:09:06.129Z,4.03
2018-05-12T01:11:33.631Z,5.13
2018-05-12T01:14:01.092Z,4.07
2018-05-12T01:16:28.655Z,4.13
2018-05-12T01:18:56.115Z,3.73
2018-05-12T01:21:23.697Z,4.10
2018-05-12T01:23:51.151Z,4.83
2018-05-12T01:26:18.624Z,5.17
2018-05-12T01:28:46.083Z,3.83
2018-05-12T01:31:13.542Z,4.03
2018-05-12T01:33:41.021Z,3.70
2018-05-12T01:36:09.275Z,3.93
2018-05-12T01:38:36.750Z,3.97
2018-05-12T01:41:04.260Z,4.43
2018-05-12T01:43:31.685Z,4.00
2018-05-12T01:45:59.160Z,3.83
2018-05-12T01:48:27.381Z,4.30
2018-05-12T01:50:54.843Z,4.77
2018-05-12T01:53:22.315Z,4.03
2018-05-12T01:55:51.722Z,3.87
2018-05-12T01:58:19.295Z,3.80
2018-05-12T02:00:46.757Z,3.40
2018-05-12T02:03:14.232Z,3.83
2018-05-12T02:05:41.674Z,3.90
2018-05-12T02:08:09.143Z,4.07
2018-05-12T02:10:36.703Z,3.40
2018-05-12T02:13:04.157Z,3.80
2018-05-12T02:15:31.639Z,3.37
2018-05-12T02:17:59.092Z,3.13
2018-05-12T02:20:26.554Z,3.47
2018-05-12T02:22:54.045Z,3.57
2018-05-12T02:25:22.276Z,3.30
2018-05-12T02:27:49.776Z,3.80
2018-05-12T02:30:17.235Z,3.83
2018-05-12T02:32:44.709Z,3.80
2018-05-12T02:35:12.947Z,3.83
2018-05-12T02:37:40.410Z,3.73
2018-05-12T02:40:07.881Z,3.40
2018-05-12T02:42:35.445Z,3.80
2018-05-12T02:45:02.916Z,3.77
2018-05-12T02:47:30.471Z,3.70
2018-05-12T02:49:58.041Z,3.23
2018-05-12T02:52:25.519Z,4.00
2018-05-12T02:54:52.978Z,3.33
2018-05-12T02:57:20.454Z,3.27
2018-05-12T02:59:47.914Z,3.80
2018-05-12T03:02:15.371Z,3.50
2018-05-12T03:04:42.839Z,3.70
2018-05-12T03:07:11.740Z,4.00
2018-05-12T03:09:39.202Z,3.70
2018-05-12T03:12:07.446Z,3.67
2018-05-12T03:14:34.924Z,3.60
2018-05-12T03:17:02.389Z,3.90
2018-05-12T03:19:29.867Z,3.83
2018-05-12T03:21:58.079Z,3.90
2018-05-12T03:24:25.553Z,3.97
2018-05-12T03:26:53.041Z,3.77
2018-05-12T03:29:20.604Z,4.00
2018-05-12T03:31:48.174Z,3.90
2018-05-12T03:34:15.627Z,4.03
2018-05-12T03:36:43.101Z,3.70
2018-05-12T03:39:10.554Z,3.70
2018-05-12T03:41:38.021Z,4.23
2018-05-12T03:44:05.588Z,4.07
2018-05-12T03:46:33.046Z,3.50
2018-05-12T03:49:00.511Z,3.80
2018-05-12T03:51:27.977Z,3.97
2018-05-12T03:53:55.456Z,3.67
2018-05-12T03:56:23.670Z,3.67
2018-05-12T03:58:51.125Z,3.93
2018-05-12T04:01:18.587Z,3.70
2018-05-12T04:03:46.058Z,3.73
2018-05-12T04:06:25.265Z,3.70
2018-05-12T04:09:18.197Z,3.87
2018-05-12T04:11:58.315Z,4.17
2018-05-12T04:14:25.792Z,3.83
2018-05-12T04:16:53.245Z,3.97
2018-05-12T04:19:20.710Z,3.83
2018-05-12T04:21:48.261Z,4.43
2018-05-12T04:24:15.842Z,3.97
2018-05-12T04:26:43.308Z,4.20
2018-05-12T04:29:10.765Z,3.47
2018-05-12T04:31:38.222Z,3.53
2018-05-12T04:34:06.919Z,4.17
2018-05-12T04:36:34.371Z,4.67
2018-05-12T04:39:01.931Z,6.17
2018-05-12T04:41:29.384Z,4.82
2018-05-12T04:43:56.838Z,4.00
2018-05-12T04:46:24.308Z,4.40
2018-05-12T04:48:51.938Z,4.33
2018-05-12T04:51:19.397Z,4.53
2018-05-12T04:53:46.849Z,3.83
2018-05-12T04:56:14.364Z,5.47
2018-05-12T04:58:41.810Z,6.10
2018-05-12T05:01:09.308Z,4.40
2018-05-12T05:03:36.755Z,4.20
2018-05-12T05:06:04.222Z,4.20
2018-05-12T05:08:31.689Z,4.10
2018-05-12T05:10:59.143Z,4.27
2018-05-12T05:13:26.617Z,4.10
2018-05-12T05:15:54.075Z,4.40
2018-05-12T05:18:21.557Z,5.40
2018-05-12T05:20:49.782Z,4.00
2018-05-12T05:23:17.266Z,4.30
2018-05-12T05:25:44.710Z,4.97
2018-05-12T05:28:12.174Z,4.27
2018-05-12T05:30:39.661Z,4.40
2018-05-12T05:33:07.203Z,4.40
2018-05-12T05:35:34.825Z,4.20
2018-05-12T05:38:03.069Z,4.10
2018-05-12T05:40:30.548Z,3.77
2018-05-12T05:42:58.097Z,4.07
2018-05-12T05:45:26.331Z,4.40
2018-05-12T05:47:53.836Z,4.93
2018-05-12T05:50:21.293Z,4.20
2018-05-12T05:52:48.843Z,4.47
2018-05-12T05:55:16.295Z,4.23
2018-05-12T05:57:43.750Z,4.57
2018-05-12T06:00:11.806Z,4.27
2018-05-12T06:02:39.263Z,3.70
2018-05-12T06:05:06.744Z,3.70
2018-05-12T06:07:34.196Z,4.60
2018-05-12T06:10:01.659Z,4.50
2018-05-12T06:12:29.126Z,4.43
2018-05-12T06:14:56.571Z,4.97
2018-05-12T06:17:24.050Z,4.43
2018-05-12T06:19:51.547Z,4.07
2018-05-12T06:22:19.003Z,5.50
2018-05-12T06:24:46.464Z,5.43
2018-05-12T06:27:13.947Z,5.00
2018-05-12T06:29:42.925Z,6.53
2018-05-12T06:32:10.398Z,5.37
2018-05-12T06:34:37.969Z,5.47
2018-05-12T06:37:05.416Z,6.03
2018-05-12T06:39:32.874Z,6.43
2018-05-12T06:42:00.335Z,5.83
2018-05-12T06:44:27.817Z,5.37
2018-05-12T06:46:55.742Z,4.53
2018-05-12T06:49:23.247Z,4.97
2018-05-12T06:51:50.711Z,5.70
2018-05-12T06:54:18.168Z,4.77
2018-05-12T06:56:45.716Z,6.17
2018-05-12T06:59:13.173Z,8.47
2018-05-12T07:01:40.652Z,6.73
2018-05-12T07:04:08.103Z,7.07
2018-05-12T07:06:35.677Z,5.50
2018-05-12T07:09:03.137Z,5.43
2018-05-12T07:11:30.709Z,4.83
2018-05-12T07:13:58.151Z,6.87
2018-05-12T07:16:25.641Z,5.70
2018-05-12T07:18:53.187Z,7.43
2018-05-12T07:21:20.647Z,8.03
2018-05-12T07:23:48.110Z,7.90
2018-05-12T07:26:15.573Z,8.50
2018-05-12T07:28:43.153Z,5.03
2018-05-12T07:31:10.617Z,6.50
2018-05-12T07:33:38.189Z,5.30
2018-05-12T07:36:05.669Z,6.53
2018-05-12T07:38:33.921Z,6.23
2018-05-12T07:41:01.377Z,4.93
2018-05-12T07:43:28.941Z,7.87
2018-05-12T07:45:56.403Z,6.43
2018-05-12T07:48:23.869Z,7.90
2018-05-12T07:50:51.438Z,7.77
2018-05-12T07:53:19.251Z,7.53
2018-05-12T07:55:46.738Z,7.00
2018-05-12T07:58:14.195Z,8.47
2018-05-12T08:00:41.658Z,6.67
2018-05-12T08:03:09.145Z,7.00
2018-05-12T08:05:36.714Z,7.17
2018-05-12T08:08:04.167Z,6.90
2018-05-12T08:10:31.624Z,7.43
2018-05-12T08:12:59.085Z,6.00
2018-05-12T08:15:26.668Z,6.70
2018-05-12T08:17:54.124Z,8.23
2018-05-12T08:20:23.107Z,7.53
2018-05-12T08:22:50.565Z,7.27
2018-05-12T08:25:18.015Z,7.77
2018-05-12T08:27:45.493Z,7.27
2018-05-12T08:30:12.950Z,5.87
2018-05-12T08:32:40.431Z,7.03
2018-05-12T08:35:07.879Z,7.23
2018-05-12T08:37:35.361Z,6.63
2018-05-12T08:40:02.821Z,6.30
2018-05-12T08:42:30.281Z,5.43
2018-05-12T08:44:57.742Z,7.07
2018-05-12T08:47:25.203Z,6.73
2018-05-12T08:49:52.675Z,6.67
2018-05-12T08:52:20.901Z,7.10
2018-05-12T08:54:48.365Z,5.60
2018-05-12T08:57:15.922Z,6.10
2018-05-12T08:59:43.378Z,5.80
2018-05-12T09:02:10.883Z,6.37
2018-05-12T09:04:38.930Z,6.80
2018-05-12T09:07:06.477Z,6.33
2018-05-12T09:09:33.901Z,5.37
2018-05-12T09:12:01.374Z,5.20
2018-05-12T09:14:28.911Z,6.70
2018-05-12T09:16:56.465Z,5.97
2018-05-12T09:19:23.976Z,6.00
2018-05-12T09:21:51.384Z,6.03
2018-05-12T09:24:18.844Z,5.80
2018-05-12T09:26:46.409Z,6.20
2018-05-12T09:29:13.903Z,5.00
2018-05-12T09:31:42.120Z,5.80
2018-05-12T09:34:09.563Z,4.73
2018-05-12T09:36:37.793Z,5.63
2018-05-12T09:39:05.271Z,5.70
2018-05-12T09:41:32.835Z,4.47
2018-05-12T09:44:00.405Z,5.27
2018-05-12T09:46:27.859Z,5.40
2018-05-12T09:48:55.422Z,5.70
2018-05-12T09:51:22.898Z,5.47
2018-05-12T09:53:50.466Z,5.77
2018-05-12T09:56:17.941Z,5.13
2018-05-12T09:58:46.202Z,5.13
2018-05-12T10:01:13.756Z,4.40
2018-05-12T10:03:41.239Z,4.50
2018-05-12T10:06:09.054Z,4.43
2018-05-12T10:08:37.976Z,4.10
2018-05-12T10:11:05.457Z,4.70
2018-05-12T10:13:32.940Z,4.50
2018-05-12T10:16:01.187Z,4.83
2018-05-12T10:18:28.643Z,5.13
2018-05-12T10:20:56.112Z,5.00
2018-05-12T10:23:23.574Z,4.33
2018-05-12T10:25:51.150Z,4.20
2018-05-12T10:28:18.696Z,3.90
2018-05-12T10:30:46.175Z,3.57
2018-05-12T10:33:13.623Z,3.70
2018-05-12T10:35:41.191Z,3.57
2018-05-12T10:38:08.670Z,3.50
2018-05-12T10:40:36.127Z,3.97
2018-05-12T10:43:03.585Z,3.40
2018-05-12T10:45:31.049Z,3.83
2018-05-12T10:47:58.609Z,3.90
2018-05-12T10:50:26.177Z,3.63
2018-05-12T10:52:53.641Z,3.87
2018-05-12T10:55:21.195Z,3.60
2018-05-12T10:57:48.766Z,2.97
2018-05-12T11:00:16.346Z,2.60
2018-05-12T11:02:43.803Z,3.17
2018-05-12T11:05:11.363Z,3.23
2018-05-12T11:07:38.923Z,4.07
2018-05-12T11:10:06.381Z,3.40
2018-05-12T11:12:33.840Z,2.90
2018-05-12T11:15:01.299Z,2.83
2018-05-12T11:17:28.775Z,2.80
2018-05-12T11:19:56.232Z,2.80
2018-05-12T11:22:24.174Z,2.63
2018-05-12T11:24:51.640Z,3.53
2018-05-12T11:27:19.099Z,2.50
2018-05-12T11:29:46.600Z,2.53
2018-05-12T11:32:14.154Z,2.17
2018-05-12T11:34:42.291Z,2.03
2018-05-12T11:37:09.761Z,2.10
2018-05-12T11:39:37.212Z,1.70
2018-05-12T11:42:04.670Z,1.63
2018-05-12T11:44:32.287Z,1.50
2018-05-12T11:46:59.755Z,1.90
2018-05-12T11:49:27.317Z,1.83
2018-05-12T11:51:54.877Z,2.17
2018-05-12T11:54:22.337Z,2.00
2018-05-12T11:56:49.808Z,1.90
2018-05-12T11:59:18.811Z,1.70
2018-05-12T12:01:46.373Z,2.27
2018-05-12T12:04:13.843Z,1.90
2018-05-12T12:06:42.060Z,1.53
2018-05-12T12:09:09.835Z,2.10
2018-05-12T12:11:37.333Z,2.20
2018-05-12T12:14:04.910Z,2.73
2018-05-12T12:16:32.429Z,2.50
2018-05-12T12:19:00.613Z,1.93
2018-05-12T12:21:28.065Z,1.77
2018-05-12T12:23:55.568Z,1.97
2018-05-12T12:26:23.019Z,2.00
2018-05-12T12:28:50.482Z,1.90
2018-05-12T12:31:17.954Z,1.70
2018-05-12T12:33:45.425Z,1.97
2018-05-12T12:36:12.914Z,1.87
2018-05-12T12:38:41.136Z,2.20
2018-05-12T12:41:08.605Z,1.97
2018-05-12T12:43:36.188Z,2.00
2018-05-12T12:46:03.637Z,2.10
2018-05-12T12:48:31.099Z,2.13
2018-05-12T12:50:58.541Z,2.30
2018-05-12T12:53:26.011Z,2.80
2018-05-12T12:55:53.457Z,2.50
2018-05-12T12:58:20.977Z,2.30
2018-05-12T13:00:50.872Z,2.60
2018-05-12T13:03:18.355Z,2.20
2018-05-12T13:05:46.361Z,2.43
2018-05-12T13:08:13.881Z,2.10
2018-05-12T13:10:41.333Z,2.33
2018-05-12T13:13:08.793Z,2.40
2018-05-12T13:15:36.243Z,2.10
2018-05-12T13:18:03.721Z,2.33
2018-05-12T13:20:31.175Z,1.97
2018-05-12T13:22:58.630Z,2.23
2018-05-12T13:25:26.220Z,2.07
2018-05-12T13:27:53.756Z,2.00
2018-05-12T13:30:21.914Z,2.30
2018-05-12T13:32:49.409Z,1.90
2018-05-12T13:35:16.877Z,1.80
2018-05-12T13:37:44.333Z,2.57
2018-05-12T13:40:11.793Z,2.83
2018-05-12T13:42:39.244Z,2.60
2018-05-12T13:45:06.749Z,2.07
2018-05-12T13:47:34.991Z,2.87
2018-05-12T13:50:02.478Z,2.73
2018-05-12T13:52:29.931Z,2.40
2018-05-12T13:54:57.492Z,2.57
2018-05-12T13:57:24.967Z,2.80
2018-05-12T13:59:52.425Z,3.20
2018-05-12T14:02:21.190Z,2.87
2018-05-12T14:04:48.682Z,3.13
2018-05-12T14:07:16.181Z,2.23
2018-05-12T14:09:44.417Z,2.30
2018-05-12T14:12:11.896Z,2.17
2018-05-12T14:14:39.351Z,2.33
2018-05-12T14:17:06.820Z,3.13
2018-05-12T14:19:35.045Z,2.17
2018-05-12T14:22:02.509Z,2.47
2018-05-12T14:24:29.974Z,2.50
2018-05-12T14:26:57.469Z,2.67
2018-05-12T14:29:24.914Z,2.80
2018-05-12T14:31:52.371Z,2.83
2018-05-12T14:34:19.843Z,2.70
2018-05-12T14:36:47.301Z,2.87
2018-05-12T14:39:14.744Z,3.00
2018-05-12T14:41:42.249Z,2.83
2018-05-12T14:44:09.704Z,2.80
2018-05-12T14:46:37.165Z,2.73
2018-05-12T14:49:04.723Z,2.90
2018-05-12T14:51:32.196Z,2.20
2018-05-12T14:53:59.745Z,2.70
2018-05-12T14:56:27.321Z,2.83
2018-05-12T14:58:54.777Z,2.47
2018-05-12T15:01:22.268Z,2.77
2018-05-12T15:03:49.804Z,2.87
2018-05-12T15:06:17.267Z,2.50
2018-05-12T15:08:44.733Z,2.60
2018-05-12T15:11:12.196Z,2.77
2018-05-12T15:13:40.436Z,3.10
2018-05-12T15:16:07.899Z,2.87
2018-05-12T15:18:35.343Z,2.73
2018-05-12T15:21:02.828Z,2.43
2018-05-12T15:23:30.283Z,2.93
2018-05-12T15:25:57.727Z,2.87
2018-05-12T15:28:25.208Z,3.33
2018-05-12T15:30:52.674Z,2.50
2018-05-12T15:33:20.143Z,2.97
2018-05-12T15:35:47.608Z,3.40
2018-05-12T15:38:15.069Z,3.20
2018-05-12T15:40:42.526Z,3.53
2018-05-12T15:43:10.005Z,3.33
2018-05-12T15:45:37.463Z,3.43
2018-05-12T15:48:04.926Z,4.00
2018-05-12T15:50:32.381Z,5.03
2018-05-12T15:52:59.843Z,7.40
2018-05-12T15:55:27.296Z,5.77
2018-05-12T15:57:54.781Z,4.23
2018-05-12T16:00:22.240Z,4.37
2018-05-12T16:02:49.724Z,3.87
2018-05-12T16:05:17.201Z,4.17
2018-05-12T16:07:45.421Z,3.73
2018-05-12T16:10:12.876Z,3.33
2018-05-12T16:12:40.343Z,3.33
2018-05-12T16:15:07.809Z,3.97
2018-05-12T16:17:35.287Z,3.40
2018-05-12T16:20:03.515Z,3.93
2018-05-12T16:22:31.760Z,3.73
2018-05-12T16:24:59.595Z,3.43
2018-05-12T16:27:27.101Z,4.00
2018-05-12T16:29:54.659Z,3.70
2018-05-12T16:32:22.123Z,3.60
2018-05-12T16:34:49.574Z,4.07
2018-05-12T16:37:17.112Z,4.07
2018-05-12T16:39:46.126Z,3.80
2018-05-12T16:42:13.625Z,4.03
2018-05-12T16:44:42.658Z,3.67
2018-05-12T16:47:10.063Z,4.00
2018-05-12T16:49:37.515Z,4.13
2018-05-12T16:52:04.993Z,3.97
2018-05-12T16:54:32.439Z,4.27
2018-05-12T16:56:59.945Z,3.83
2018-05-12T16:59:28.174Z,4.37
2018-05-12T17:01:55.638Z,4.50
2018-05-12T17:04:23.153Z,4.80
2018-05-12T17:06:50.567Z,4.20
2018-05-12T17:09:18.034Z,5.17
2018-05-12T17:11:45.489Z,5.37
2018-05-12T17:14:13.002Z,4.97
2018-05-12T17:16:41.237Z,5.43
2018-05-12T17:19:08.709Z,7.57
2018-05-12T17:21:36.175Z,7.10
2018-05-12T17:24:03.637Z,6.43
2018-05-12T17:26:31.211Z,5.50
2018-05-12T17:28:58.672Z,5.07
2018-05-12T17:31:26.135Z,4.33
2018-05-12T17:33:53.667Z,3.93
2018-05-12T17:36:21.153Z,4.20
2018-05-12T17:38:48.628Z,5.30
2018-05-12T17:41:17.598Z,4.03
2018-05-12T17:43:45.061Z,4.20
2018-05-12T17:46:12.516Z,4.20
2018-05-12T17:48:40.000Z,4.20
2018-05-12T17:51:07.464Z,4.07
2018-05-12T17:53:34.930Z,4.53
2018-05-12T17:56:03.162Z,4.07
2018-05-12T17:58:30.636Z,4.87
2018-05-12T18:00:58.128Z,3.87
2018-05-12T18:03:25.599Z,5.05
2018-05-12T18:05:53.830Z,4.10
2018-05-12T18:08:21.284Z,4.33
2018-05-12T18:10:48.799Z,4.63
2018-05-12T18:13:16.274Z,4.17
2018-05-12T18:15:44.541Z,3.37
2018-05-12T18:18:12.773Z,4.47
2018-05-12T18:20:40.242Z,2.77
2018-05-12T18:23:07.817Z,4.13
2018-05-12T18:25:35.304Z,3.07
2018-05-12T18:28:02.865Z,2.77
2018-05-12T18:30:30.335Z,2.43
2018-05-12T18:32:58.332Z,2.80
2018-05-12T18:35:25.780Z,2.67
2018-05-12T18:37:53.325Z,3.00
2018-05-12T18:40:20.792Z,3.07
2018-05-12T18:42:48.365Z,3.90
2018-05-12T18:45:15.825Z,3.20
2018-05-12T18:47:44.798Z,2.40
2018-05-12T18:50:12.258Z,3.23
2018-05-12T18:52:39.719Z,2.07
2018-05-12T18:55:07.207Z,2.10
2018-05-12T18:57:34.757Z,2.50
2018-05-12T19:00:02.234Z,2.50
2018-05-12T19:02:29.776Z,2.40
2018-05-12T19:04:57.344Z,4.93
2018-05-12T19:07:25.238Z,2.60
2018-05-12T19:09:52.698Z,3.13
2018-05-12T19:12:21.667Z,3.90
2018-05-12T19:14:49.145Z,3.93
2018-05-12T19:17:16.815Z,2.85
2018-05-12T19:19:44.197Z,2.20
2018-05-12T19:22:11.652Z,3.83
2018-05-12T19:24:39.123Z,3.00
2018-05-12T19:27:07.339Z,5.53
2018-05-12T19:29:34.842Z,2.90
2018-05-12T19:32:02.311Z,3.63
2018-05-12T19:34:29.776Z,3.43
2018-05-12T19:36:57.265Z,2.63
2018-05-12T19:39:25.794Z,4.03
2018-05-12T19:41:53.285Z,2.83
2018-05-12T19:44:21.537Z,2.97
2018-05-12T19:46:48.990Z,3.27
2018-05-12T19:49:16.495Z,3.23
2018-05-12T19:51:44.730Z,3.07
2018-05-12T19:54:12.196Z,2.80
2018-05-12T19:56:39.688Z,3.43
2018-05-12T19:59:07.156Z,2.67
2018-05-12T20:01:34.713Z,3.00
2018-05-12T20:04:02.177Z,3.07
2018-05-12T20:06:29.746Z,3.00
2018-05-12T20:08:57.204Z,2.87
2018-05-12T20:11:24.767Z,2.80
2018-05-12T20:13:52.290Z,2.97
2018-05-12T20:16:19.757Z,2.40
2018-05-12T20:18:47.230Z,2.53
2018-05-12T20:21:14.687Z,2.07
2018-05-12T20:23:42.184Z,2.90
2018-05-12T20:26:09.735Z,2.20
2018-05-12T20:28:37.206Z,2.50
2018-05-12T20:31:04.828Z,2.87
2018-05-12T20:33:33.061Z,3.60
2018-05-12T20:36:00.519Z,3.13
2018-05-12T20:38:28.749Z,2.50
2018-05-12T20:40:56.313Z,3.07
2018-05-12T20:43:23.773Z,2.77
2018-05-12T20:45:51.229Z,2.87
2018-05-12T20:48:18.684Z,2.57
2018-05-12T20:50:46.195Z,3.50
2018-05-12T20:53:13.657Z,2.80
2018-05-12T20:55:41.127Z,3.50
2018-05-12T20:58:08.589Z,2.40
2018-05-12T21:00:36.170Z,3.10
2018-05-12T21:03:03.660Z,2.60
2018-05-12T21:05:31.870Z,3.03
2018-05-12T21:07:59.341Z,3.07
2018-05-12T21:10:26.810Z,3.30
2018-05-12T21:12:54.271Z,4.23
2018-05-12T21:15:21.735Z,4.00
2018-05-12T21:17:49.307Z,3.87
2018-05-12T21:20:16.875Z,2.93
2018-05-12T21:22:44.334Z,3.07
2018-05-12T21:25:11.910Z,2.43
2018-05-12T21:27:39.374Z,1.97
2018-05-12T21:30:06.838Z,3.90
2018-05-12T21:32:34.381Z,3.70
2018-05-12T21:35:01.962Z,2.73
2018-05-12T21:37:29.416Z,2.73
2018-05-12T21:39:56.886Z,3.70
2018-05-12T21:42:24.346Z,2.17
2018-05-12T21:44:53.311Z,2.93
2018-05-12T21:47:21.876Z,2.37
2018-05-12T21:49:49.345Z,2.70
2018-05-12T21:52:16.853Z,2.77
2018-05-12T21:54:44.300Z,2.93
2018-05-12T21:57:11.772Z,2.50
2018-05-12T21:59:39.241Z,3.00
2018-05-12T22:02:08.235Z,2.80
2018-05-12T22:04:36.469Z,2.50
2018-05-12T22:07:03.970Z,2.60
2018-05-12T22:09:31.437Z,3.23
2018-05-12T22:11:59.004Z,3.40
2018-05-12T22:14:27.242Z,3.27
2018-05-12T22:16:54.740Z,3.00
2018-05-12T22:19:22.305Z,3.07
2018-05-12T22:21:49.773Z,2.50
2018-05-12T22:24:17.241Z,2.57
2018-05-12T22:26:45.511Z,3.03
2018-05-12T22:29:12.989Z,2.83
2018-05-12T22:31:40.458Z,3.83
2018-05-12T22:34:08.000Z,2.47
2018-05-12T22:36:35.469Z,3.70
2018-05-12T22:39:02.938Z,3.03
2018-05-12T22:41:31.161Z,3.07
2018-05-12T22:43:58.627Z,2.63
2018-05-12T22:46:26.087Z,3.53
2018-05-12T22:48:53.560Z,2.80
2018-05-12T22:51:21.012Z,3.03
2018-05-12T22:53:48.474Z,3.37
2018-05-12T22:56:15.958Z,3.40
2018-05-12T22:58:43.536Z,3.60
2018-05-12T23:01:11.011Z,3.10
2018-05-12T23:03:39.997Z,4.50
2018-05-12T23:06:07.571Z,3.90
2018-05-12T23:08:35.013Z,4.33
2018-05-12T23:11:02.592Z,5.23
2018-05-12T23:13:30.070Z,4.23
2018-05-12T23:15:58.311Z,4.37
2018-05-12T23:18:25.805Z,4.03
2018-05-12T23:20:53.260Z,4.60
2018-05-12T23:23:20.824Z,4.17
2018-05-12T23:25:48.289Z,5.13
2018-05-12T23:28:15.763Z,5.57
2018-05-12T23:30:43.990Z,4.10
2018-05-12T23:33:11.476Z,5.47
2018-05-12T23:35:38.942Z,5.33
2018-05-12T23:38:06.515Z,5.47
2018-05-12T23:40:33.989Z,5.13
2018-05-12T23:43:01.525Z,4.37
2018-05-12T23:45:29.140Z,6.43
2018-05-12T23:47:56.671Z,6.57
2018-05-12T23:50:24.154Z,5.20
2018-05-12T23:52:52.376Z,4.90
2018-05-12T23:55:19.822Z,4.80
2018-05-12T23:57:47.324Z,5.07
